createdAt,value
2018-01-28T00:00:27.535Z,6.50
2018-01-28T00:02:54.081Z,6.50
2018-01-28T00:05:20.621Z,6.50
2018-01-28T00:07:47.128Z,6.50
2018-01-28T00:10:13.544Z,6.50
2018-01-28T00:12:40.706Z,6.50
2018-01-28T00:15:07.299Z,6.50
2018-01-28T00:17:33.756Z,6.50
2018-01-28T00:20:00.259Z,6.50
2018-01-28T00:22:26.675Z,6.40
2018-01-28T00:24:54.764Z,6.50
2018-01-28T00:27:22.076Z,6.50
2018-01-28T00:29:48.499Z,6.50
2018-01-28T00:32:14.915Z,6.50
2018-01-28T00:34:41.341Z,6.50
2018-01-28T00:37:08.519Z,6.50
2018-01-28T00:39:35.077Z,6.50
2018-01-28T00:42:01.510Z,6.50
2018-01-28T00:44:28.068Z,6.50
2018-01-28T00:46:54.482Z,6.50
2018-01-28T00:49:20.990Z,6.50
2018-01-28T00:51:47.438Z,6.50
2018-01-28T00:54:13.839Z,6.50
2018-01-28T00:56:40.543Z,6.60
2018-01-28T00:59:07.157Z,6.60
2018-01-28T01:01:34.371Z,6.70
2018-01-28T01:04:00.796Z,6.60
2018-01-28T01:06:27.233Z,6.70
2018-01-28T01:08:53.658Z,6.70
2018-01-28T01:11:20.836Z,6.60
2018-01-28T01:13:47.302Z,6.60
2018-01-28T01:16:13.728Z,6.60
2018-01-28T01:18:40.180Z,6.70
2018-01-28T01:21:06.717Z,6.70
2018-01-28T01:23:33.156Z,6.70
2018-01-28T01:26:00.337Z,6.80
2018-01-28T01:28:26.927Z,6.70
2018-01-28T01:30:53.468Z,6.80
2018-01-28T01:33:20.813Z,6.80
2018-01-28T01:35:48.179Z,6.80
2018-01-28T01:38:14.712Z,6.80
2018-01-28T01:40:41.140Z,6.80
2018-01-28T01:43:07.638Z,6.80
2018-01-28T01:45:34.064Z,6.80
2018-01-28T01:48:00.650Z,6.80
2018-01-28T01:50:27.393Z,6.80
2018-01-28T01:52:53.901Z,6.80
2018-01-28T01:55:20.413Z,6.90
2018-01-28T01:57:46.933Z,6.90
2018-01-28T02:00:13.475Z,6.90
2018-01-28T02:02:39.986Z,6.90
2018-01-28T02:05:06.689Z,7.00
2018-01-28T02:07:33.178Z,7.00
2018-01-28T02:09:59.680Z,7.00
2018-01-28T02:12:26.144Z,7.00
2018-01-28T02:14:52.556Z,7.00
2018-01-28T02:17:19.038Z,7.10
2018-01-28T02:19:45.531Z,7.10
2018-01-28T02:22:11.979Z,7.00
2018-01-28T02:24:38.447Z,7.10
2018-01-28T02:27:05.060Z,7.10
2018-01-28T02:29:31.473Z,7.00
2018-01-28T02:31:57.994Z,7.00
2018-01-28T02:34:25.285Z,7.00
2018-01-28T02:36:51.698Z,7.00
2018-01-28T02:39:18.088Z,7.00
2018-01-28T02:41:44.629Z,7.00
2018-01-28T02:44:11.797Z,7.00
2018-01-28T02:46:38.197Z,7.00
2018-01-28T02:49:05.375Z,7.00
2018-01-28T02:51:31.760Z,7.00
2018-01-28T02:53:58.165Z,7.00
2018-01-28T02:56:24.591Z,7.00
2018-01-28T02:58:51.718Z,7.10
2018-01-28T03:01:18.134Z,7.00
2018-01-28T03:03:44.570Z,7.10
2018-01-28T03:06:10.986Z,7.10
2018-01-28T03:08:37.424Z,7.10
2018-01-28T03:11:03.914Z,7.10
2018-01-28T03:13:30.361Z,7.10
2018-01-28T03:15:56.785Z,7.10
2018-01-28T03:18:23.243Z,7.10
2018-01-28T03:20:49.610Z,7.10
2018-01-28T03:23:16.050Z,7.10
2018-01-28T03:25:43.254Z,7.10
2018-01-28T03:28:09.700Z,7.10
2018-01-28T03:30:36.392Z,7.10
2018-01-28T03:33:02.800Z,7.10
2018-01-28T03:35:29.195Z,7.20
2018-01-28T03:37:55.663Z,7.20
2018-01-28T03:40:22.084Z,7.20
2018-01-28T03:42:49.219Z,7.10
2018-01-28T03:45:15.772Z,7.10
2018-01-28T03:47:42.215Z,7.10
2018-01-28T03:50:09.373Z,7.10
2018-01-28T03:52:36.526Z,7.10
2018-01-28T03:55:03.054Z,7.10
2018-01-28T03:57:29.482Z,7.10
2018-01-28T03:59:56.142Z,7.00
2018-01-28T04:02:23.600Z,7.10
2018-01-28T04:04:50.718Z,7.10
2018-01-28T04:07:17.107Z,7.10
2018-01-28T04:09:43.690Z,7.00
2018-01-28T04:12:10.091Z,7.00
2018-01-28T04:14:37.087Z,7.00
2018-01-28T04:17:04.313Z,7.10
2018-01-28T04:19:30.719Z,7.00
2018-01-28T04:21:57.131Z,7.10
2018-01-28T04:24:23.602Z,7.10
2018-01-28T04:26:50.786Z,7.00
2018-01-28T04:29:17.968Z,7.00
2018-01-28T04:31:44.402Z,7.00
2018-01-28T04:34:10.791Z,7.00
2018-01-28T04:36:37.192Z,7.00
2018-01-28T04:39:03.839Z,6.90
2018-01-28T04:41:30.259Z,7.00
2018-01-28T04:43:56.671Z,7.00
2018-01-28T04:46:23.106Z,7.00
2018-01-28T04:48:49.522Z,6.90
2018-01-28T04:51:15.938Z,6.90
2018-01-28T04:53:43.178Z,6.90
2018-01-28T04:56:10.322Z,6.90
2018-01-28T04:58:36.774Z,6.90
2018-01-28T05:01:03.248Z,6.90
2018-01-28T05:03:29.680Z,6.90
2018-01-28T05:05:56.104Z,6.90
2018-01-28T05:08:22.622Z,6.90
2018-01-28T05:10:49.101Z,6.80
2018-01-28T05:13:15.547Z,6.80
2018-01-28T05:15:42.073Z,6.80
2018-01-28T05:18:08.593Z,6.70
2018-01-28T05:20:35.008Z,6.70
2018-01-28T05:23:01.464Z,6.70
2018-01-28T05:25:27.858Z,6.60
2018-01-28T05:27:54.251Z,6.60
2018-01-28T05:30:20.644Z,6.60
2018-01-28T05:32:47.092Z,6.60
2018-01-28T05:35:13.645Z,6.50
2018-01-28T05:37:40.091Z,6.50
2018-01-28T05:40:06.488Z,6.50
2018-01-28T05:42:32.887Z,6.50
2018-01-28T05:44:59.314Z,6.50
2018-01-28T05:47:25.714Z,6.50
2018-01-28T05:49:53.654Z,6.30
2018-01-28T05:52:20.118Z,6.30
2018-01-28T05:54:48.044Z,6.20
2018-01-28T05:57:14.470Z,6.10
2018-01-28T05:59:40.881Z,6.10
2018-01-28T06:02:07.313Z,6.10
2018-01-28T06:04:33.698Z,6.10
2018-01-28T06:07:00.109Z,6.20
2018-01-28T06:09:26.483Z,6.20
2018-01-28T06:11:52.878Z,6.20
2018-01-28T06:14:19.295Z,6.20
2018-01-28T06:16:45.690Z,6.20
2018-01-28T06:19:12.922Z,6.20
2018-01-28T06:21:39.458Z,6.20
2018-01-28T06:24:06.644Z,6.30
2018-01-28T06:26:33.102Z,6.20
2018-01-28T06:28:59.558Z,6.30
2018-01-28T06:31:25.979Z,6.40
2018-01-28T06:33:53.216Z,6.40
2018-01-28T06:36:19.651Z,6.40
2018-01-28T06:38:46.058Z,6.40
2018-01-28T06:41:12.454Z,6.40
2018-01-28T06:43:38.902Z,6.40
2018-01-28T06:46:06.221Z,6.50
2018-01-28T06:48:32.606Z,6.40
2018-01-28T06:50:59.102Z,6.50
2018-01-28T06:53:25.485Z,6.50
2018-01-28T06:55:51.924Z,6.50
2018-01-28T06:58:18.509Z,6.60
2018-01-28T07:00:45.675Z,6.60
2018-01-28T07:03:12.991Z,6.60
2018-01-28T07:05:39.435Z,6.60
2018-01-28T07:08:05.850Z,6.70
2018-01-28T07:10:32.411Z,6.60
2018-01-28T07:12:58.891Z,6.70
2018-01-28T07:15:25.380Z,6.70
2018-01-28T07:17:51.802Z,6.70
2018-01-28T07:20:21.078Z,6.70
2018-01-28T07:22:47.536Z,6.80
2018-01-28T07:25:14.708Z,6.80
2018-01-28T07:27:41.169Z,6.80
2018-01-28T07:30:07.575Z,6.80
2018-01-28T07:32:34.073Z,6.80
2018-01-28T07:35:00.539Z,6.80
2018-01-28T07:37:27.028Z,6.90
2018-01-28T07:39:53.501Z,6.90
2018-01-28T07:42:20.731Z,7.00
2018-01-28T07:44:47.157Z,7.00
2018-01-28T07:47:13.566Z,7.00
2018-01-28T07:49:40.020Z,6.90
2018-01-28T07:52:06.587Z,7.00
2018-01-28T07:54:39.970Z,7.00
2018-01-28T07:57:06.450Z,7.00
2018-01-28T07:59:32.924Z,7.10
2018-01-28T08:01:59.382Z,7.10
2018-01-28T08:04:25.812Z,7.20
2018-01-28T08:06:52.245Z,7.20
2018-01-28T08:09:18.752Z,7.20
2018-01-28T08:11:49.082Z,7.20
2018-01-28T08:14:15.516Z,7.20
2018-01-28T08:16:41.985Z,7.20
2018-01-28T08:19:08.412Z,7.20
2018-01-28T08:21:35.587Z,7.30
2018-01-28T08:24:02.909Z,7.30
2018-01-28T08:26:29.341Z,7.30
2018-01-28T08:28:56.628Z,7.30
2018-01-28T08:31:23.091Z,7.40
2018-01-28T08:33:49.525Z,7.40
2018-01-28T08:36:15.975Z,7.40
2018-01-28T08:38:42.512Z,7.40
2018-01-28T08:41:08.974Z,7.50
2018-01-28T08:43:35.360Z,7.50
2018-01-28T08:46:01.784Z,7.60
2018-01-28T08:48:28.975Z,7.50
2018-01-28T08:50:55.367Z,7.50
2018-01-28T08:53:21.803Z,7.60
2018-01-28T08:55:48.230Z,7.60
2018-01-28T08:58:14.703Z,7.60
2018-01-28T09:00:41.935Z,7.70
2018-01-28T09:03:08.366Z,7.70
2018-01-28T09:05:34.820Z,7.70
2018-01-28T09:08:01.244Z,7.70
2018-01-28T09:10:27.780Z,7.70
2018-01-28T09:12:54.233Z,7.70
2018-01-28T09:15:20.683Z,7.70
2018-01-28T09:17:47.945Z,7.70
2018-01-28T09:20:14.428Z,7.70
2018-01-28T09:22:40.987Z,7.70
2018-01-28T09:25:07.473Z,7.70
2018-01-28T09:27:33.895Z,7.70
2018-01-28T09:30:01.039Z,7.80
2018-01-28T09:32:27.513Z,7.80
2018-01-28T09:34:53.938Z,7.80
2018-01-28T09:37:20.416Z,7.90
2018-01-28T09:39:47.735Z,8.10
2018-01-28T09:42:14.244Z,8.00
2018-01-28T09:44:40.762Z,8.10
2018-01-28T09:47:07.183Z,8.20
2018-01-28T09:49:33.664Z,8.20
2018-01-28T09:52:01.047Z,8.40
2018-01-28T09:54:27.474Z,8.40
2018-01-28T09:56:54.115Z,8.50
2018-01-28T09:59:27.501Z,8.50
2018-01-28T10:01:55.390Z,8.70
2018-01-28T10:04:21.896Z,8.70
2018-01-28T10:06:48.397Z,8.80
2018-01-28T10:09:14.883Z,8.90
2018-01-28T10:11:41.312Z,8.90
2018-01-28T10:14:07.809Z,9.00
2018-01-28T10:16:35.115Z,9.10
2018-01-28T10:19:01.547Z,9.00
2018-01-28T10:21:27.983Z,9.10
2018-01-28T10:23:54.390Z,9.10
2018-01-28T10:26:20.849Z,9.10
2018-01-28T10:28:48.119Z,9.00
2018-01-28T10:31:14.552Z,9.00
2018-01-28T10:33:41.009Z,9.10
2018-01-28T10:36:07.589Z,9.20
2018-01-28T10:38:34.123Z,9.20
2018-01-28T10:41:00.585Z,9.20
2018-01-28T10:43:27.771Z,9.30
2018-01-28T10:45:54.184Z,9.30
2018-01-28T10:48:20.856Z,9.40
2018-01-28T10:50:47.298Z,9.40
2018-01-28T10:53:13.847Z,9.40
2018-01-28T10:55:40.305Z,9.50
2018-01-28T10:58:07.580Z,9.50
2018-01-28T11:00:34.048Z,9.50
2018-01-28T11:03:00.575Z,9.50
2018-01-28T11:05:27.071Z,9.60
2018-01-28T11:07:53.652Z,9.60
2018-01-28T11:10:21.567Z,9.80
2018-01-28T11:12:48.045Z,9.80
2018-01-28T11:15:14.605Z,9.90
2018-01-28T11:17:41.032Z,10.00
2018-01-28T11:20:07.509Z,10.00
2018-01-28T11:22:34.012Z,10.00
2018-01-28T11:25:00.502Z,10.10
2018-01-28T11:27:26.994Z,10.00
2018-01-28T11:29:53.414Z,10.00
2018-01-28T11:32:19.887Z,10.00
2018-01-28T11:34:46.464Z,10.10
2018-01-28T11:37:12.955Z,10.10
2018-01-28T11:39:39.454Z,10.10
2018-01-28T11:42:05.967Z,10.00
2018-01-28T11:44:32.520Z,10.00
2018-01-28T11:46:58.966Z,10.00
2018-01-28T11:49:25.594Z,10.00
2018-01-28T11:51:52.012Z,10.00
2018-01-28T11:54:18.562Z,10.00
2018-01-28T11:56:45.845Z,10.10
2018-01-28T11:59:12.279Z,10.10
2018-01-28T12:01:38.663Z,10.20
2018-01-28T12:04:05.089Z,10.20
2018-01-28T12:06:31.533Z,10.30
2018-01-28T12:08:58.028Z,10.30
2018-01-28T12:11:24.508Z,10.30
2018-01-28T12:13:50.930Z,10.30
2018-01-28T12:16:17.354Z,10.20
2018-01-28T12:18:43.811Z,10.10
2018-01-28T12:21:11.165Z,10.00
2018-01-28T12:23:38.368Z,10.00
2018-01-28T12:26:04.933Z,10.00
2018-01-28T12:28:31.373Z,10.10
2018-01-28T12:30:57.799Z,10.10
2018-01-28T12:33:24.298Z,10.10
2018-01-28T12:35:50.782Z,10.10
2018-01-28T12:38:18.003Z,10.10
2018-01-28T12:40:44.572Z,10.10
2018-01-28T12:43:11.010Z,10.10
2018-01-28T12:45:45.303Z,10.30
2018-01-28T12:48:11.719Z,10.20
2018-01-28T12:50:38.155Z,10.40
2018-01-28T12:53:04.681Z,10.40
2018-01-28T12:55:31.217Z,10.50
2018-01-28T12:57:57.700Z,10.60
2018-01-28T13:00:25.008Z,10.80
2018-01-28T13:02:51.466Z,10.70
2018-01-28T13:05:17.898Z,10.80
2018-01-28T13:07:44.367Z,10.90
2018-01-28T13:10:10.807Z,10.90
2018-01-28T13:12:37.983Z,11.00
2018-01-28T13:15:04.571Z,10.90
2018-01-28T13:17:31.779Z,11.10
2018-01-28T13:19:58.252Z,11.10
2018-01-28T13:22:24.762Z,11.20
2018-01-28T13:24:51.204Z,11.20
2018-01-28T13:27:17.680Z,11.30
2018-01-28T13:29:44.175Z,11.40
2018-01-28T13:32:10.596Z,11.40
2018-01-28T13:34:37.028Z,11.50
2018-01-28T13:37:03.695Z,11.50
2018-01-28T13:39:30.879Z,11.40
2018-01-28T13:41:57.459Z,11.30
2018-01-28T13:44:24.913Z,11.00
2018-01-28T13:46:51.425Z,11.00
2018-01-28T13:49:17.875Z,11.00
2018-01-28T13:51:44.520Z,11.00
2018-01-28T13:54:11.014Z,11.00
2018-01-28T13:56:37.580Z,11.00
2018-01-28T13:59:04.842Z,11.00
2018-01-28T14:01:31.334Z,11.00
2018-01-28T14:03:57.834Z,11.00
2018-01-28T14:06:24.267Z,11.10
2018-01-28T14:08:50.761Z,11.00
2018-01-28T14:11:17.195Z,11.20
2018-01-28T14:13:43.680Z,11.20
2018-01-28T14:16:10.831Z,11.30
2018-01-28T14:18:37.333Z,11.30
2018-01-28T14:21:03.830Z,11.40
2018-01-28T14:23:30.254Z,11.40
2018-01-28T14:25:56.744Z,11.30
2018-01-28T14:28:23.392Z,11.30
2018-01-28T14:30:49.850Z,11.20
2018-01-28T14:33:16.462Z,11.10
2018-01-28T14:35:42.934Z,11.00
2018-01-28T14:38:10.055Z,10.90
2018-01-28T14:40:37.247Z,10.90
2018-01-28T14:43:03.701Z,10.90
2018-01-28T14:45:30.149Z,10.80
2018-01-28T14:47:56.682Z,10.70
2018-01-28T14:50:23.333Z,10.70
2018-01-28T14:52:50.554Z,10.60
2018-01-28T14:55:17.069Z,10.60
2018-01-28T14:57:43.602Z,10.60
2018-01-28T15:00:10.098Z,10.60
2018-01-28T15:02:37.262Z,10.50
2018-01-28T15:05:04.508Z,10.50
2018-01-28T15:07:31.828Z,10.40
2018-01-28T15:09:58.257Z,10.40
2018-01-28T15:12:24.813Z,10.40
2018-01-28T15:14:51.316Z,10.40
2018-01-28T15:17:17.779Z,10.30
2018-01-28T15:19:44.535Z,10.20
2018-01-28T15:22:11.156Z,10.20
2018-01-28T15:24:37.670Z,10.20
2018-01-28T15:27:04.986Z,10.30
2018-01-28T15:29:31.564Z,10.20
2018-01-28T15:31:59.248Z,10.20
2018-01-28T15:34:26.458Z,10.20
2018-01-28T15:36:52.992Z,10.20
2018-01-28T15:39:19.524Z,10.20
2018-01-28T15:41:46.105Z,10.20
2018-01-28T15:44:12.541Z,10.20
2018-01-28T15:46:39.791Z,10.10
2018-01-28T15:49:06.995Z,10.00
2018-01-28T15:51:33.583Z,10.00
2018-01-28T15:54:00.406Z,10.00
2018-01-28T15:56:27.069Z,9.90
2018-01-28T15:58:54.408Z,9.70
2018-01-28T16:01:21.371Z,9.70
2018-01-28T16:03:48.130Z,9.60
2018-01-28T16:06:14.748Z,9.50
2018-01-28T16:08:41.968Z,9.20
2018-01-28T16:11:08.476Z,9.20
2018-01-28T16:13:34.879Z,9.00
2018-01-28T16:16:01.320Z,9.00
2018-01-28T16:18:27.805Z,8.90
2018-01-28T16:20:54.355Z,8.90
2018-01-28T16:23:20.842Z,8.80
2018-01-28T16:25:47.349Z,8.80
2018-01-28T16:28:14.680Z,8.70
2018-01-28T16:30:41.445Z,8.70
2018-01-28T16:33:07.905Z,8.60
2018-01-28T16:35:34.508Z,8.60
2018-01-28T16:38:01.034Z,8.50
2018-01-28T16:40:28.332Z,8.40
2018-01-28T16:42:55.014Z,8.40
2018-01-28T16:45:22.236Z,8.40
2018-01-28T16:47:48.832Z,8.40
2018-01-28T16:50:15.267Z,8.50
2018-01-28T16:52:41.687Z,8.50
2018-01-28T16:55:08.873Z,8.60
2018-01-28T16:57:35.311Z,8.60
2018-01-28T17:00:01.759Z,8.70
2018-01-28T17:02:28.223Z,8.70
2018-01-28T17:04:55.448Z,9.00
2018-01-28T17:07:22.826Z,9.10
2018-01-28T17:09:50.088Z,9.10
2018-01-28T17:12:17.309Z,9.10
2018-01-28T17:14:43.793Z,9.10
2018-01-28T17:17:10.404Z,9.20
2018-01-28T17:19:36.853Z,9.20
2018-01-28T17:22:04.066Z,9.20
2018-01-28T17:24:30.614Z,9.20
2018-01-28T17:26:57.115Z,9.20
2018-01-28T17:29:23.779Z,9.20
2018-01-28T17:31:50.384Z,9.20
2018-01-28T17:34:16.913Z,9.30
2018-01-28T17:36:43.606Z,9.30
2018-01-28T17:39:10.350Z,9.40
2018-01-28T17:41:36.958Z,9.40
2018-01-28T17:44:03.627Z,9.30
2018-01-28T17:46:30.146Z,9.40
2018-01-28T17:48:56.621Z,9.40
2018-01-28T17:51:23.225Z,9.50
2018-01-28T17:53:50.790Z,9.50
2018-01-28T17:56:17.529Z,9.40
2018-01-28T17:58:44.803Z,9.50
2018-01-28T18:01:11.359Z,9.40
2018-01-28T18:03:37.786Z,9.50
2018-01-28T18:06:04.224Z,9.40
2018-01-28T18:08:30.760Z,9.40
2018-01-28T18:10:57.240Z,9.50
2018-01-28T18:13:23.760Z,9.50
2018-01-28T18:15:50.300Z,9.50
2018-01-28T18:18:16.753Z,9.50
2018-01-28T18:20:43.199Z,9.50
2018-01-28T18:23:10.463Z,9.50
2018-01-28T18:25:36.957Z,9.50
2018-01-28T18:28:03.495Z,9.50
2018-01-28T18:30:30.351Z,9.50
2018-01-28T18:32:57.663Z,9.50
2018-01-28T18:35:24.652Z,9.50
2018-01-28T18:37:51.142Z,9.50
2018-01-28T18:40:17.709Z,9.50
2018-01-28T18:42:44.198Z,9.50
2018-01-28T18:45:10.699Z,9.60
2018-01-28T18:47:38.000Z,9.50
2018-01-28T18:50:04.513Z,9.50
2018-01-28T18:52:31.121Z,9.50
2018-01-28T18:54:58.315Z,9.50
2018-01-28T18:57:24.825Z,9.50
2018-01-28T18:59:51.417Z,9.50
2018-01-28T19:05:13.690Z,9.40
2018-01-28T19:07:40.886Z,9.50
2018-01-28T19:10:07.394Z,9.40
2018-01-28T19:12:34.644Z,9.50
2018-01-28T19:15:01.483Z,9.40
2018-01-28T19:17:28.120Z,9.50
2018-01-28T19:19:54.830Z,9.50
2018-01-28T19:22:22.214Z,9.50
2018-01-28T19:24:48.793Z,9.40
2018-01-28T19:27:15.492Z,9.50
2018-01-28T19:29:42.327Z,9.50
2018-01-28T19:32:08.903Z,9.50
2018-01-28T19:34:35.524Z,9.50
2018-01-28T19:37:02.237Z,9.50
2018-01-28T19:39:28.848Z,9.50
2018-01-28T19:41:56.273Z,9.50
2018-01-28T19:44:22.897Z,9.50
2018-01-28T19:46:49.562Z,9.50
2018-01-28T19:49:17.034Z,9.50
2018-01-28T19:51:44.631Z,9.50
2018-01-28T19:54:11.232Z,9.50
2018-01-28T19:56:38.656Z,9.50
2018-01-28T19:59:05.464Z,9.50
2018-01-28T20:01:32.076Z,9.60
2018-01-28T20:03:59.554Z,9.50
2018-01-28T20:06:26.170Z,9.50
2018-01-28T20:08:53.663Z,9.40
2018-01-28T20:11:20.349Z,9.40
2018-01-28T20:13:47.749Z,9.40
2018-01-28T20:16:14.591Z,9.40
2018-01-28T20:18:41.432Z,9.50
2018-01-28T20:21:08.143Z,9.40
2018-01-28T20:23:34.783Z,9.50
2018-01-28T20:26:01.453Z,9.50
2018-01-28T20:28:28.084Z,9.50
2018-01-28T20:30:54.672Z,9.50
2018-01-28T20:33:21.310Z,9.50
2018-01-28T20:35:47.914Z,9.50
2018-01-28T20:38:14.627Z,9.50
2018-01-28T20:40:41.582Z,9.50
2018-01-28T20:43:08.218Z,9.50
2018-01-28T20:45:35.057Z,9.50
2018-01-28T20:48:01.685Z,9.50
2018-01-28T20:50:28.539Z,9.50
2018-01-28T20:52:55.387Z,9.50
2018-01-28T20:55:22.051Z,9.50
2018-01-28T20:57:49.639Z,9.50
2018-01-28T21:00:17.025Z,9.60
2018-01-28T21:02:43.655Z,9.60
2018-01-28T21:05:10.518Z,9.60
2018-01-28T21:07:37.112Z,9.60
2018-01-28T21:10:03.770Z,9.60
2018-01-28T21:12:30.602Z,9.70
2018-01-28T21:14:57.945Z,9.70
2018-01-28T21:17:25.320Z,9.70
2018-01-28T21:19:51.941Z,9.70
2018-01-28T21:22:18.699Z,9.70
2018-01-28T21:24:45.310Z,9.70
2018-01-28T21:27:12.202Z,9.70
2018-01-28T21:29:39.045Z,9.70
2018-01-28T21:32:05.983Z,9.70
2018-01-28T21:34:32.583Z,9.60
2018-01-28T21:36:59.930Z,9.60
2018-01-28T21:39:26.723Z,9.60
2018-01-28T21:41:53.366Z,9.60
2018-01-28T21:44:20.670Z,9.70
2018-01-28T21:46:47.437Z,9.70
2018-01-28T21:49:14.805Z,9.70
2018-01-28T21:51:41.618Z,9.60
2018-01-28T21:54:08.317Z,9.60
2018-01-28T21:56:35.964Z,9.60
2018-01-28T21:59:02.694Z,9.60
2018-01-28T22:01:29.365Z,9.60
2018-01-28T22:03:56.066Z,9.70
2018-01-28T22:06:23.511Z,9.60
2018-01-28T22:08:51.007Z,9.70
2018-01-28T22:11:17.591Z,9.60
2018-01-28T22:13:44.469Z,9.70
2018-01-28T22:16:11.401Z,9.80
2018-01-28T22:18:38.250Z,9.80
2018-01-28T22:21:04.870Z,9.80
2018-01-28T22:23:32.214Z,9.80
2018-01-28T22:25:58.860Z,9.80
2018-01-28T22:28:25.495Z,9.80
2018-01-28T22:30:52.148Z,9.80
2018-01-28T22:33:18.995Z,9.80
2018-01-28T22:35:45.705Z,9.80
2018-01-28T22:38:12.679Z,9.80
2018-01-28T22:40:40.539Z,9.80
2018-01-28T22:43:07.283Z,9.70
2018-01-28T22:45:34.136Z,9.80
2018-01-28T22:48:00.769Z,9.70
2018-01-28T22:50:27.408Z,9.70
2018-01-28T22:52:54.217Z,9.80
2018-01-28T22:55:21.000Z,9.80
2018-01-28T22:57:47.824Z,9.80
2018-01-28T23:00:15.059Z,9.70
2018-01-28T23:02:41.506Z,9.70
2018-01-28T23:05:08.205Z,9.70
2018-01-28T23:07:37.353Z,9.70
2018-01-28T23:10:08.976Z,9.70
2018-01-28T23:12:35.878Z,9.80
2018-01-28T23:15:02.380Z,9.80
2018-01-28T23:17:28.820Z,9.70
2018-01-28T23:19:55.258Z,9.80
2018-01-28T23:22:22.596Z,9.70
2018-01-28T23:24:49.122Z,9.70
2018-01-28T23:27:15.565Z,9.70
2018-01-28T23:29:42.086Z,9.70
2018-01-28T23:32:08.635Z,9.80
2018-01-28T23:34:35.919Z,9.70
2018-01-28T23:37:02.403Z,9.60
2018-01-28T23:39:28.902Z,9.70
2018-01-28T23:41:56.000Z,9.70
2018-01-28T23:44:22.758Z,9.70
2018-01-28T23:46:49.344Z,9.60
2018-01-28T23:49:16.620Z,9.60
2018-01-28T23:51:43.938Z,9.60
2018-01-28T23:54:10.830Z,9.70
2018-01-28T23:56:37.406Z,9.70
2018-01-28T23:59:04.094Z,9.70
